Terminal Aerodrome Forecast
Issued by NWS

Home | Current Version | Previous Version | Text Only | Print | Product List | Glossary On
Versions: 1 2 3 4 5 6 7 8 9 10 11 12 13 14 15 16 17 18 19 20 21 22 23 24 25
823
FTUS44 KLIX 162331
TAFHDC
TAF
KHDC 162331Z 1700/1724 01013KT 3SM -FZRASNPL OVC012
     FM170130 36012KT 2SM -SN OVC013
     FM170400 36011KT P6SM BKN013
     FM170800 35011KT P6SM SCT200
     FM171500 36009KT P6SM SKC=

USA.gov is the U.S. government's official web portal to all federal, state and local government web resources and services.